Portada
METAR-TAF:

METAR-TAF

Aeroports :

Gerba, Tunísia

Aeroport Internacional de Djerba

latitud: 33-52N, longitud: 010-46E, altitud: 3 m

Observació

L'informe es va fer fa 20 minuts, a les 21:30 UTC
Vent 8 kt del Est/Sud-Est
Temperatura 19°C
Humitat 64%
Pressió 1016 hPa
Visibilitat: 8000 m

METAR: DTTJ 222130Z 12008KT 8000 NSC 19/12 Q1016 NOSIG

Hora: 22:50 (21:50 UTC)

Pronòstic

L'informe es va fer fa 4 hores i 40 minuts, a les 17:10 UTC
Pronòstic vàlid del 22 a les 18 UTC al 23 a les 18 UTC
Vent 12 kt del Est/Nord-Est
Visibilitat 10 km o més
sense núvols per sota de 1500 mi sense presència de cumulonimbus.
Probabilitat 30% :
Temporalment
l' 23 a les 05 UTC al 23 a les 08 UTC
Vent 2 kt amb direcció variable
Visibilitat: 2000 m
Escasses núvols a una alçada de 1000 ft
boirina

TAF: DTTJ 221710Z 2218/2318 07012KT CAVOK PROB30 TEMPO 2305/2308 VRB02KT 2000 BR FEW010

Observacions i pronòstics meteorològics de més de 4000 aeroports (METAR i TAF).

Les estacions disponibles són els punts grocs i vermells al mapa.

Posi el ratolí al punt desitjat per veure el nom de l'estació.

Feu clic per veure les observacions i els pronòstics meteorològics.

Per canviar el mapa: feu clic els botons verds amb una creu de color negre per apropar; al botó verd amb un guió per allunyar la imatge; o en les fletxes verdes per a mapes adjacents.


METAR-TAF: